sensor_id;sensor_type;location;lat;lon;timestamp;temperature;humidity
43679;DHT22;29279;50.858;4.392;2022-07-18T00:00:14;23.10;63.80
43679;DHT22;29279;50.858;4.392;2022-07-18T00:02:40;23.00;63.60
43679;DHT22;29279;50.858;4.392;2022-07-18T00:05:06;23.00;64.00
43679;DHT22;29279;50.858;4.392;2022-07-18T00:07:32;22.90;63.60
43679;DHT22;29279;50.858;4.392;2022-07-18T00:09:58;22.90;63.60
43679;DHT22;29279;50.858;4.392;2022-07-18T00:12:24;22.90;63.50
43679;DHT22;29279;50.858;4.392;2022-07-18T00:14:50;22.90;63.70
43679;DHT22;29279;50.858;4.392;2022-07-18T00:17:15;22.90;63.40
43679;DHT22;29279;50.858;4.392;2022-07-18T00:19:41;22.90;64.00
43679;DHT22;29279;50.858;4.392;2022-07-18T00:22:08;22.80;64.10
43679;DHT22;29279;50.858;4.392;2022-07-18T00:24:34;22.80;64.30
43679;DHT22;29279;50.858;4.392;2022-07-18T00:27:00;22.60;64.20
43679;DHT22;29279;50.858;4.392;2022-07-18T00:29:26;22.70;64.60
43679;DHT22;29279;50.858;4.392;2022-07-18T00:31:52;22.60;64.30
43679;DHT22;29279;50.858;4.392;2022-07-18T00:34:18;22.60;64.40
43679;DHT22;29279;50.858;4.392;2022-07-18T00:36:44;22.60;64.60
43679;DHT22;29279;50.858;4.392;2022-07-18T00:39:09;22.60;64.60
43679;DHT22;29279;50.858;4.392;2022-07-18T00:41:35;22.50;64.70
43679;DHT22;29279;50.858;4.392;2022-07-18T00:44:01;22.50;64.60
43679;DHT22;29279;50.858;4.392;2022-07-18T00:46:28;22.50;64.50
43679;DHT22;29279;50.858;4.392;2022-07-18T00:48:54;22.50;64.60
43679;DHT22;29279;50.858;4.392;2022-07-18T00:51:20;22.40;64.80
43679;DHT22;29279;50.858;4.392;2022-07-18T00:53:47;22.40;65.30
43679;DHT22;29279;50.858;4.392;2022-07-18T00:56:17;22.40;65.00
43679;DHT22;29279;50.858;4.392;2022-07-18T00:58:44;22.40;65.40
43679;DHT22;29279;50.858;4.392;2022-07-18T01:01:10;22.30;65.20
43679;DHT22;29279;50.858;4.392;2022-07-18T01:03:54;22.30;65.20
43679;DHT22;29279;50.858;4.392;2022-07-18T01:06:21;22.30;65.00
43679;DHT22;29279;50.858;4.392;2022-07-18T01:08:48;22.30;65.90
43679;DHT22;29279;50.858;4.392;2022-07-18T01:11:14;22.20;66.20
43679;DHT22;29279;50.858;4.392;2022-07-18T01:13:40;22.20;66.30
43679;DHT22;29279;50.858;4.392;2022-07-18T01:16:06;22.20;66.40
43679;DHT22;29279;50.858;4.392;2022-07-18T01:18:31;22.10;67.20
43679;DHT22;29279;50.858;4.392;2022-07-18T01:20:57;22.10;66.80
43679;DHT22;29279;50.858;4.392;2022-07-18T01:23:23;22.00;66.90
43679;DHT22;29279;50.858;4.392;2022-07-18T01:25:48;22.00;67.00
43679;DHT22;29279;50.858;4.392;2022-07-18T01:28:14;22.00;67.10
43679;DHT22;29279;50.858;4.392;2022-07-18T01:30:40;22.00;67.20
43679;DHT22;29279;50.858;4.392;2022-07-18T01:33:06;21.90;67.60
43679;DHT22;29279;50.858;4.392;2022-07-18T01:35:32;21.80;67.10
43679;DHT22;29279;50.858;4.392;2022-07-18T01:37:59;21.70;67.40
43679;DHT22;29279;50.858;4.392;2022-07-18T01:40:26;21.60;67.40
43679;DHT22;29279;50.858;4.392;2022-07-18T01:42:52;21.70;67.60
43679;DHT22;29279;50.858;4.392;2022-07-18T01:45:18;21.70;67.60
43679;DHT22;29279;50.858;4.392;2022-07-18T01:47:44;21.60;67.70
43679;DHT22;29279;50.858;4.392;2022-07-18T01:50:11;21.60;67.90
43679;DHT22;29279;50.858;4.392;2022-07-18T01:52:37;21.60;67.90
43679;DHT22;29279;50.858;4.392;2022-07-18T01:55:05;21.60;67.70
43679;DHT22;29279;50.858;4.392;2022-07-18T01:57:31;21.60;68.10
43679;DHT22;29279;50.858;4.392;2022-07-18T01:59:57;21.50;68.10
43679;DHT22;29279;50.858;4.392;2022-07-18T02:02:23;21.50;68.50
43679;DHT22;29279;50.858;4.392;2022-07-18T02:04:48;21.50;67.80
43679;DHT22;29279;50.858;4.392;2022-07-18T02:07:38;21.60;67.90
43679;DHT22;29279;50.858;4.392;2022-07-18T02:10:13;21.60;67.40
43679;DHT22;29279;50.858;4.392;2022-07-18T02:12:40;21.50;67.50
43679;DHT22;29279;50.858;4.392;2022-07-18T02:15:09;21.50;67.70
43679;DHT22;29279;50.858;4.392;2022-07-18T02:17:35;21.50;67.80
43679;DHT22;29279;50.858;4.392;2022-07-18T02:20:01;21.40;67.70
43679;DHT22;29279;50.858;4.392;2022-07-18T02:22:27;21.40;68.00
43679;DHT22;29279;50.858;4.392;2022-07-18T02:24:53;21.40;68.20
43679;DHT22;29279;50.858;4.392;2022-07-18T02:27:19;21.40;68.50
43679;DHT22;29279;50.858;4.392;2022-07-18T02:29:46;21.30;68.20
43679;DHT22;29279;50.858;4.392;2022-07-18T02:32:11;21.30;68.40
43679;DHT22;29279;50.858;4.392;2022-07-18T02:34:37;21.40;68.10
43679;DHT22;29279;50.858;4.392;2022-07-18T02:37:04;21.40;68.50
43679;DHT22;29279;50.858;4.392;2022-07-18T02:39:29;21.30;68.40
43679;DHT22;29279;50.858;4.392;2022-07-18T02:41:56;21.30;68.00
43679;DHT22;29279;50.858;4.392;2022-07-18T02:44:22;21.30;69.00
43679;DHT22;29279;50.858;4.392;2022-07-18T02:46:48;21.30;69.10
43679;DHT22;29279;50.858;4.392;2022-07-18T02:49:13;21.20;69.50
43679;DHT22;29279;50.858;4.392;2022-07-18T02:52:03;21.30;69.10
43679;DHT22;29279;50.858;4.392;2022-07-18T02:54:31;21.30;69.20
43679;DHT22;29279;50.858;4.392;2022-07-18T02:56:57;21.20;69.70
43679;DHT22;29279;50.858;4.392;2022-07-18T02:59:24;21.20;69.50
43679;DHT22;29279;50.858;4.392;2022-07-18T03:01:50;21.00;70.20
43679;DHT22;29279;50.858;4.392;2022-07-18T03:04:17;21.00;70.50
43679;DHT22;29279;50.858;4.392;2022-07-18T03:06:44;20.80;70.70
43679;DHT22;29279;50.858;4.392;2022-07-18T03:09:10;20.80;70.70
43679;DHT22;29279;50.858;4.392;2022-07-18T03:11:36;20.80;70.60
43679;DHT22;29279;50.858;4.392;2022-07-18T03:14:01;20.80;70.80
43679;DHT22;29279;50.858;4.392;2022-07-18T03:16:27;20.80;70.50
43679;DHT22;29279;50.858;4.392;2022-07-18T03:18:53;20.80;70.60
43679;DHT22;29279;50.858;4.392;2022-07-18T03:21:19;20.70;70.60
43679;DHT22;29279;50.858;4.392;2022-07-18T03:23:46;20.50;71.60
43679;DHT22;29279;50.858;4.392;2022-07-18T03:26:11;20.50;72.20
43679;DHT22;29279;50.858;4.392;2022-07-18T03:28:37;20.50;71.30
43679;DHT22;29279;50.858;4.392;2022-07-18T03:31:03;20.50;71.30
43679;DHT22;29279;50.858;4.392;2022-07-18T03:33:29;20.50;71.50
43679;DHT22;29279;50.858;4.392;2022-07-18T03:35:55;20.60;71.10
43679;DHT22;29279;50.858;4.392;2022-07-18T03:38:21;20.60;70.60
43679;DHT22;29279;50.858;4.392;2022-07-18T03:40:47;20.70;70.10
43679;DHT22;29279;50.858;4.392;2022-07-18T03:43:13;20.80;69.90
43679;DHT22;29279;50.858;4.392;2022-07-18T03:45:38;20.80;69.90
43679;DHT22;29279;50.858;4.392;2022-07-18T03:48:04;20.80;69.60
43679;DHT22;29279;50.858;4.392;2022-07-18T03:50:30;20.80;69.40
43679;DHT22;29279;50.858;4.392;2022-07-18T03:52:56;20.80;69.60
43679;DHT22;29279;50.858;4.392;2022-07-18T03:55:22;20.70;69.70
43679;DHT22;29279;50.858;4.392;2022-07-18T03:57:47;20.70;69.70
43679;DHT22;29279;50.858;4.392;2022-07-18T04:00:14;20.70;69.90
43679;DHT22;29279;50.858;4.392;2022-07-18T04:02:42;20.60;69.90
43679;DHT22;29279;50.858;4.392;2022-07-18T04:05:08;20.60;70.00
43679;DHT22;29279;50.858;4.392;2022-07-18T04:07:34;20.70;69.80
43679;DHT22;29279;50.858;4.392;2022-07-18T04:10:00;20.80;69.70
43679;DHT22;29279;50.858;4.392;2022-07-18T04:12:26;20.90;69.50
43679;DHT22;29279;50.858;4.392;2022-07-18T04:14:52;20.90;69.40
43679;DHT22;29279;50.858;4.392;2022-07-18T04:17:17;20.90;69.30
43679;DHT22;29279;50.858;4.392;2022-07-18T04:19:43;20.80;69.40
43679;DHT22;29279;50.858;4.392;2022-07-18T04:22:09;20.70;69.80
43679;DHT22;29279;50.858;4.392;2022-07-18T04:24:34;20.70;69.80
43679;DHT22;29279;50.858;4.392;2022-07-18T04:27:00;20.60;70.00
43679;DHT22;29279;50.858;4.392;2022-07-18T04:29:25;20.70;69.90
43679;DHT22;29279;50.858;4.392;2022-07-18T04:31:51;20.70;69.50
43679;DHT22;29279;50.858;4.392;2022-07-18T04:34:17;20.80;69.40
43679;DHT22;29279;50.858;4.392;2022-07-18T04:36:43;20.80;69.40
43679;DHT22;29279;50.858;4.392;2022-07-18T04:39:08;20.90;69.20
43679;DHT22;29279;50.858;4.392;2022-07-18T04:41:34;20.80;69.20
43679;DHT22;29279;50.858;4.392;2022-07-18T04:44:00;20.90;69.50
43679;DHT22;29279;50.858;4.392;2022-07-18T04:46:26;20.90;69.30
43679;DHT22;29279;50.858;4.392;2022-07-18T04:48:51;20.90;69.20
43679;DHT22;29279;50.858;4.392;2022-07-18T04:51:17;21.00;69.10
43679;DHT22;29279;50.858;4.392;2022-07-18T04:53:43;21.00;69.10
43679;DHT22;29279;50.858;4.392;2022-07-18T04:56:08;21.00;68.80
43679;DHT22;29279;50.858;4.392;2022-07-18T04:58:34;21.00;69.00
43679;DHT22;29279;50.858;4.392;2022-07-18T05:01:00;21.00;68.90
43679;DHT22;29279;50.858;4.392;2022-07-18T05:03:25;20.90;68.80
43679;DHT22;29279;50.858;4.392;2022-07-18T05:05:51;21.00;68.80
43679;DHT22;29279;50.858;4.392;2022-07-18T05:08:17;21.10;68.70
43679;DHT22;29279;50.858;4.392;2022-07-18T05:10:43;21.10;68.60
43679;DHT22;29279;50.858;4.392;2022-07-18T05:13:09;21.30;68.20
43679;DHT22;29279;50.858;4.392;2022-07-18T05:15:35;21.50;67.90
43679;DHT22;29279;50.858;4.392;2022-07-18T05:18:01;21.60;67.70
43679;DHT22;29279;50.858;4.392;2022-07-18T05:20:26;21.60;67.60
43679;DHT22;29279;50.858;4.392;2022-07-18T05:22:53;21.70;67.40
43679;DHT22;29279;50.858;4.392;2022-07-18T05:25:20;21.90;67.20
43679;DHT22;29279;50.858;4.392;2022-07-18T05:27:50;22.00;67.00
43679;DHT22;29279;50.858;4.392;2022-07-18T05:30:16;21.90;66.90
43679;DHT22;29279;50.858;4.392;2022-07-18T05:32:43;22.00;66.80
43679;DHT22;29279;50.858;4.392;2022-07-18T05:35:11;22.00;66.70
43679;DHT22;29279;50.858;4.392;2022-07-18T05:37:37;22.10;66.40
43679;DHT22;29279;50.858;4.392;2022-07-18T05:40:05;22.20;66.30
43679;DHT22;29279;50.858;4.392;2022-07-18T05:42:31;22.30;66.30
43679;DHT22;29279;50.858;4.392;2022-07-18T05:44:57;22.50;66.20
43679;DHT22;29279;50.858;4.392;2022-07-18T05:47:23;22.50;65.90
43679;DHT22;29279;50.858;4.392;2022-07-18T05:49:49;22.60;65.70
43679;DHT22;29279;50.858;4.392;2022-07-18T05:52:14;22.60;65.40
43679;DHT22;29279;50.858;4.392;2022-07-18T05:54:40;22.80;65.30
43679;DHT22;29279;50.858;4.392;2022-07-18T05:57:06;22.80;65.00
43679;DHT22;29279;50.858;4.392;2022-07-18T05:59:31;23.00;65.00
43679;DHT22;29279;50.858;4.392;2022-07-18T06:01:57;23.10;64.80
43679;DHT22;29279;50.858;4.392;2022-07-18T06:04:22;23.20;64.50
43679;DHT22;29279;50.858;4.392;2022-07-18T06:06:48;23.30;64.50
43679;DHT22;29279;50.858;4.392;2022-07-18T06:09:16;23.40;65.20
43679;DHT22;29279;50.858;4.392;2022-07-18T06:11:42;23.60;65.40
43679;DHT22;29279;50.858;4.392;2022-07-18T06:14:07;23.80;64.50
43679;DHT22;29279;50.858;4.392;2022-07-18T06:16:33;24.10;65.10
43679;DHT22;29279;50.858;4.392;2022-07-18T06:18:59;24.20;62.90
43679;DHT22;29279;50.858;4.392;2022-07-18T06:21:25;24.30;64.00
43679;DHT22;29279;50.858;4.392;2022-07-18T06:23:51;24.30;62.90
43679;DHT22;29279;50.858;4.392;2022-07-18T06:26:17;24.40;62.40
43679;DHT22;29279;50.858;4.392;2022-07-18T06:28:42;24.50;62.20
43679;DHT22;29279;50.858;4.392;2022-07-18T06:31:08;24.60;62.00
43679;DHT22;29279;50.858;4.392;2022-07-18T06:33:34;24.70;62.50
43679;DHT22;29279;50.858;4.392;2022-07-18T06:35:59;24.90;62.80
43679;DHT22;29279;50.858;4.392;2022-07-18T06:38:25;25.00;62.20
43679;DHT22;29279;50.858;4.392;2022-07-18T06:40:51;25.20;61.90
43679;DHT22;29279;50.858;4.392;2022-07-18T06:43:17;25.30;60.80
43679;DHT22;29279;50.858;4.392;2022-07-18T06:45:46;25.30;59.70
43679;DHT22;29279;50.858;4.392;2022-07-18T06:48:13;25.20;60.30
43679;DHT22;29279;50.858;4.392;2022-07-18T06:50:39;25.30;59.80
43679;DHT22;29279;50.858;4.392;2022-07-18T06:53:05;25.30;59.80
43679;DHT22;29279;50.858;4.392;2022-07-18T06:55:30;25.40;59.80
43679;DHT22;29279;50.858;4.392;2022-07-18T06:57:56;25.40;60.30
43679;DHT22;29279;50.858;4.392;2022-07-18T07:00:22;25.60;59.40
43679;DHT22;29279;50.858;4.392;2022-07-18T07:02:49;25.60;59.50
43679;DHT22;29279;50.858;4.392;2022-07-18T07:05:16;25.70;59.50
43679;DHT22;29279;50.858;4.392;2022-07-18T07:07:43;25.80;59.10
43679;DHT22;29279;50.858;4.392;2022-07-18T07:10:09;25.80;59.50
43679;DHT22;29279;50.858;4.392;2022-07-18T07:12:47;25.90;58.80
43679;DHT22;29279;50.858;4.392;2022-07-18T07:15:13;26.10;58.70
43679;DHT22;29279;50.858;4.392;2022-07-18T07:17:39;26.20;58.80
43679;DHT22;29279;50.858;4.392;2022-07-18T07:20:06;26.20;59.10
43679;DHT22;29279;50.858;4.392;2022-07-18T07:22:45;26.10;58.90
43679;DHT22;29279;50.858;4.392;2022-07-18T07:25:12;26.00;59.00
43679;DHT22;29279;50.858;4.392;2022-07-18T07:27:38;26.10;58.80
43679;DHT22;29279;50.858;4.392;2022-07-18T07:30:04;26.20;58.70
43679;DHT22;29279;50.858;4.392;2022-07-18T07:32:35;26.30;59.20
43679;DHT22;29279;50.858;4.392;2022-07-18T07:35:02;26.30;59.20
43679;DHT22;29279;50.858;4.392;2022-07-18T07:37:27;26.30;58.80
43679;DHT22;29279;50.858;4.392;2022-07-18T07:39:53;26.40;58.80
43679;DHT22;29279;50.858;4.392;2022-07-18T07:42:19;26.50;58.90
43679;DHT22;29279;50.858;4.392;2022-07-18T07:44:45;26.70;58.30
43679;DHT22;29279;50.858;4.392;2022-07-18T07:47:10;26.70;58.40
43679;DHT22;29279;50.858;4.392;2022-07-18T07:49:36;26.80;58.30
43679;DHT22;29279;50.858;4.392;2022-07-18T07:52:02;26.90;58.20
43679;DHT22;29279;50.858;4.392;2022-07-18T07:54:28;27.00;57.90
43679;DHT22;29279;50.858;4.392;2022-07-18T07:56:53;27.00;57.50
43679;DHT22;29279;50.858;4.392;2022-07-18T07:59:19;27.10;58.00
43679;DHT22;29279;50.858;4.392;2022-07-18T08:01:44;27.10;58.00
43679;DHT22;29279;50.858;4.392;2022-07-18T08:04:10;27.20;58.00
43679;DHT22;29279;50.858;4.392;2022-07-18T08:06:36;27.30;57.70
43679;DHT22;29279;50.858;4.392;2022-07-18T08:09:01;27.40;57.60
43679;DHT22;29279;50.858;4.392;2022-07-18T08:11:27;27.60;57.60
43679;DHT22;29279;50.858;4.392;2022-07-18T08:13:53;27.80;57.80
43679;DHT22;29279;50.858;4.392;2022-07-18T08:16:19;27.90;57.40
43679;DHT22;29279;50.858;4.392;2022-07-18T08:18:45;27.90;57.10
43679;DHT22;29279;50.858;4.392;2022-07-18T08:21:10;27.90;57.10
43679;DHT22;29279;50.858;4.392;2022-07-18T08:23:36;27.90;57.40
43679;DHT22;29279;50.858;4.392;2022-07-18T08:26:02;27.90;57.30
43679;DHT22;29279;50.858;4.392;2022-07-18T08:28:28;28.20;57.50
43679;DHT22;29279;50.858;4.392;2022-07-18T08:30:53;28.30;57.20
43679;DHT22;29279;50.858;4.392;2022-07-18T08:33:19;28.50;57.10
43679;DHT22;29279;50.858;4.392;2022-07-18T08:35:45;28.70;56.60
43679;DHT22;29279;50.858;4.392;2022-07-18T08:38:10;28.80;56.50
43679;DHT22;29279;50.858;4.392;2022-07-18T08:40:38;28.90;56.70
43679;DHT22;29279;50.858;4.392;2022-07-18T08:43:04;29.00;56.60
43679;DHT22;29279;50.858;4.392;2022-07-18T08:45:29;29.10;56.40
43679;DHT22;29279;50.858;4.392;2022-07-18T08:47:55;29.20;56.00
43679;DHT22;29279;50.858;4.392;2022-07-18T08:50:21;29.30;56.00
43679;DHT22;29279;50.858;4.392;2022-07-18T08:52:48;29.30;55.70
43679;DHT22;29279;50.858;4.392;2022-07-18T08:55:14;29.40;55.50
43679;DHT22;29279;50.858;4.392;2022-07-18T08:57:40;29.40;55.20
43679;DHT22;29279;50.858;4.392;2022-07-18T09:00:07;29.60;55.40
43679;DHT22;29279;50.858;4.392;2022-07-18T09:02:34;29.60;55.10
43679;DHT22;29279;50.858;4.392;2022-07-18T09:05:01;29.60;54.90
43679;DHT22;29279;50.858;4.392;2022-07-18T09:07:33;29.70;54.70
43679;DHT22;29279;50.858;4.392;2022-07-18T09:10:04;29.80;54.40
43679;DHT22;29279;50.858;4.392;2022-07-18T09:12:31;29.90;54.90
43679;DHT22;29279;50.858;4.392;2022-07-18T09:14:57;30.00;54.60
43679;DHT22;29279;50.858;4.392;2022-07-18T09:17:25;30.20;53.80
43679;DHT22;29279;50.858;4.392;2022-07-18T09:22:28;30.10;54.10
43679;DHT22;29279;50.858;4.392;2022-07-18T09:24:55;30.10;53.70
43679;DHT22;29279;50.858;4.392;2022-07-18T09:27:33;30.20;54.00
43679;DHT22;29279;50.858;4.392;2022-07-18T09:32:42;30.50;54.10
43679;DHT22;29279;50.858;4.392;2022-07-18T09:35:17;30.70;53.30
43679;DHT22;29279;50.858;4.392;2022-07-18T09:40:27;31.00;53.60
43679;DHT22;29279;50.858;4.392;2022-07-18T09:42:55;31.20;53.60
43679;DHT22;29279;50.858;4.392;2022-07-18T09:45:32;31.50;53.40
43679;DHT22;29279;50.858;4.392;2022-07-18T09:48:00;31.70;52.90
43679;DHT22;29279;50.858;4.392;2022-07-18T09:50:38;31.80;53.00
43679;DHT22;29279;50.858;4.392;2022-07-18T09:53:13;32.00;52.50
43679;DHT22;29279;50.858;4.392;2022-07-18T09:55:48;32.10;52.30
43679;DHT22;29279;50.858;4.392;2022-07-18T09:58:19;32.30;52.50
43679;DHT22;29279;50.858;4.392;2022-07-18T10:00:46;32.50;51.60
43679;DHT22;29279;50.858;4.392;2022-07-18T10:03:13;32.60;51.50
43679;DHT22;29279;50.858;4.392;2022-07-18T10:05:40;32.90;52.00
43679;DHT22;29279;50.858;4.392;2022-07-18T10:08:09;33.10;50.80
43679;DHT22;29279;50.858;4.392;2022-07-18T10:10:36;33.10;50.80
43679;DHT22;29279;50.858;4.392;2022-07-18T10:13:04;33.20;50.20
43679;DHT22;29279;50.858;4.392;2022-07-18T10:15:33;33.20;50.50
43679;DHT22;29279;50.858;4.392;2022-07-18T10:17:59;33.10;51.10
43679;DHT22;29279;50.858;4.392;2022-07-18T10:20:35;33.20;51.20
43679;DHT22;29279;50.858;4.392;2022-07-18T10:23:07;33.70;50.50
43679;DHT22;29279;50.858;4.392;2022-07-18T10:25:34;33.90;51.50
43679;DHT22;29279;50.858;4.392;2022-07-18T10:28:06;34.10;50.30
43679;DHT22;29279;50.858;4.392;2022-07-18T10:30:40;34.50;50.20
43679;DHT22;29279;50.858;4.392;2022-07-18T10:33:38;34.80;49.60
43679;DHT22;29279;50.858;4.392;2022-07-18T10:36:12;34.80;49.10
43679;DHT22;29279;50.858;4.392;2022-07-18T10:57:28;37.80;46.40
43679;DHT22;29279;50.858;4.392;2022-07-18T11:00:05;38.30;46.10
43679;DHT22;29279;50.858;4.392;2022-07-18T11:02:39;38.50;46.20
43679;DHT22;29279;50.858;4.392;2022-07-18T11:18:30;40.70;44.50
43679;DHT22;29279;50.858;4.392;2022-07-18T11:20:56;40.90;43.90
43679;DHT22;29279;50.858;4.392;2022-07-18T11:23:28;40.50;43.40
43679;DHT22;29279;50.858;4.392;2022-07-18T11:25:56;40.30;43.60
43679;DHT22;29279;50.858;4.392;2022-07-18T11:28:24;40.40;43.40
43679;DHT22;29279;50.858;4.392;2022-07-18T11:31:19;40.00;43.10
43679;DHT22;29279;50.858;4.392;2022-07-18T11:33:47;39.20;43.50
43679;DHT22;29279;50.858;4.392;2022-07-18T11:36:19;38.80;43.80
43679;DHT22;29279;50.858;4.392;2022-07-18T11:38:51;38.40;43.80
43679;DHT22;29279;50.858;4.392;2022-07-18T11:41:18;38.50;43.90
43679;DHT22;29279;50.858;4.392;2022-07-18T11:43:46;38.50;43.80
43679;DHT22;29279;50.858;4.392;2022-07-18T11:46:15;38.30;43.80
43679;DHT22;29279;50.858;4.392;2022-07-18T11:48:44;39.00;43.40
43679;DHT22;29279;50.858;4.392;2022-07-18T11:51:14;39.70;42.90
43679;DHT22;29279;50.858;4.392;2022-07-18T11:53:48;40.30;43.00
43679;DHT22;29279;50.858;4.392;2022-07-18T11:56:15;40.30;42.20
43679;DHT22;29279;50.858;4.392;2022-07-18T11:58:42;40.40;42.40
43679;DHT22;29279;50.858;4.392;2022-07-18T12:01:08;40.90;42.40
43679;DHT22;29279;50.858;4.392;2022-07-18T12:03:36;40.60;41.10
43679;DHT22;29279;50.858;4.392;2022-07-18T12:06:20;40.50;41.40
43679;DHT22;29279;50.858;4.392;2022-07-18T12:08:59;40.90;41.90
43679;DHT22;29279;50.858;4.392;2022-07-18T12:11:38;41.70;42.00
43679;DHT22;29279;50.858;4.392;2022-07-18T12:16:36;43.00;41.00
43679;DHT22;29279;50.858;4.392;2022-07-18T12:19:09;42.10;40.90
43679;DHT22;29279;50.858;4.392;2022-07-18T12:22:05;41.20;41.00
43679;DHT22;29279;50.858;4.392;2022-07-18T12:27:20;41.00;41.50
43679;DHT22;29279;50.858;4.392;2022-07-18T12:32:53;41.40;40.70
43679;DHT22;29279;50.858;4.392;2022-07-18T12:35:22;41.60;40.50
43679;DHT22;29279;50.858;4.392;2022-07-18T12:40:22;42.10;39.80
43679;DHT22;29279;50.858;4.392;2022-07-18T12:42:48;42.20;40.10
43679;DHT22;29279;50.858;4.392;2022-07-18T12:45:15;42.50;41.00
43679;DHT22;29279;50.858;4.392;2022-07-18T12:47:41;42.90;40.10
43679;DHT22;29279;50.858;4.392;2022-07-18T12:50:08;43.30;39.70
43679;DHT22;29279;50.858;4.392;2022-07-18T12:52:34;43.40;39.60
43679;DHT22;29279;50.858;4.392;2022-07-18T12:55:00;43.30;39.40
43679;DHT22;29279;50.858;4.392;2022-07-18T12:57:26;43.00;39.20
43679;DHT22;29279;50.858;4.392;2022-07-18T12:59:52;42.90;39.70
43679;DHT22;29279;50.858;4.392;2022-07-18T13:02:18;43.10;39.80
43679;DHT22;29279;50.858;4.392;2022-07-18T13:04:44;43.20;39.80
43679;DHT22;29279;50.858;4.392;2022-07-18T13:07:10;43.50;39.10
43679;DHT22;29279;50.858;4.392;2022-07-18T13:09:36;43.20;39.00
43679;DHT22;29279;50.858;4.392;2022-07-18T13:12:02;43.00;39.30
43679;DHT22;29279;50.858;4.392;2022-07-18T13:14:28;43.20;39.20
43679;DHT22;29279;50.858;4.392;2022-07-18T13:16:54;43.20;39.00
43679;DHT22;29279;50.858;4.392;2022-07-18T13:19:20;42.80;39.00
43679;DHT22;29279;50.858;4.392;2022-07-18T13:21:46;43.10;39.40
43679;DHT22;29279;50.858;4.392;2022-07-18T13:24:13;43.10;38.00
43679;DHT22;29279;50.858;4.392;2022-07-18T13:26:40;42.30;37.60
43679;DHT22;29279;50.858;4.392;2022-07-18T13:29:06;42.20;37.60
43679;DHT22;29279;50.858;4.392;2022-07-18T13:31:32;41.90;37.50
43679;DHT22;29279;50.858;4.392;2022-07-18T13:33:58;41.50;37.50
43679;DHT22;29279;50.858;4.392;2022-07-18T13:36:24;41.50;38.50
43679;DHT22;29279;50.858;4.392;2022-07-18T13:38:50;41.50;39.00
43679;DHT22;29279;50.858;4.392;2022-07-18T13:41:16;41.80;39.20
43679;DHT22;29279;50.858;4.392;2022-07-18T13:43:41;42.30;39.50
43679;DHT22;29279;50.858;4.392;2022-07-18T13:46:10;43.00;38.90
43679;DHT22;29279;50.858;4.392;2022-07-18T13:48:39;43.30;39.00
43679;DHT22;29279;50.858;4.392;2022-07-18T13:51:05;43.80;38.90
43679;DHT22;29279;50.858;4.392;2022-07-18T13:53:32;44.10;38.70
43679;DHT22;29279;50.858;4.392;2022-07-18T13:55:58;44.10;39.00
43679;DHT22;29279;50.858;4.392;2022-07-18T13:58:23;44.50;39.30
43679;DHT22;29279;50.858;4.392;2022-07-18T14:00:49;44.70;38.30
43679;DHT22;29279;50.858;4.392;2022-07-18T14:03:16;44.50;38.20
43679;DHT22;29279;50.858;4.392;2022-07-18T14:05:41;44.50;38.10
43679;DHT22;29279;50.858;4.392;2022-07-18T14:08:07;43.80;38.30
43679;DHT22;29279;50.858;4.392;2022-07-18T14:10:34;43.60;38.50
43679;DHT22;29279;50.858;4.392;2022-07-18T14:13:00;43.70;38.20
43679;DHT22;29279;50.858;4.392;2022-07-18T14:15:26;43.30;38.10
43679;DHT22;29279;50.858;4.392;2022-07-18T14:17:52;43.50;38.50
43679;DHT22;29279;50.858;4.392;2022-07-18T14:20:18;43.50;38.30
43679;DHT22;29279;50.858;4.392;2022-07-18T14:22:44;43.00;38.50
43679;DHT22;29279;50.858;4.392;2022-07-18T14:25:13;42.90;38.90
43679;DHT22;29279;50.858;4.392;2022-07-18T14:27:40;42.70;38.50
43679;DHT22;29279;50.858;4.392;2022-07-18T14:30:07;42.30;38.10
43679;DHT22;29279;50.858;4.392;2022-07-18T14:32:34;41.80;38.70
43679;DHT22;29279;50.858;4.392;2022-07-18T14:34:59;41.40;39.00
43679;DHT22;29279;50.858;4.392;2022-07-18T14:37:25;40.90;39.40
43679;DHT22;29279;50.858;4.392;2022-07-18T14:39:51;40.70;39.80
43679;DHT22;29279;50.858;4.392;2022-07-18T14:42:16;40.40;40.10
43679;DHT22;29279;50.858;4.392;2022-07-18T14:44:42;40.50;40.00
43679;DHT22;29279;50.858;4.392;2022-07-18T14:47:08;40.60;40.10
43679;DHT22;29279;50.858;4.392;2022-07-18T14:49:34;40.70;39.90
43679;DHT22;29279;50.858;4.392;2022-07-18T14:52:00;40.70;39.70
43679;DHT22;29279;50.858;4.392;2022-07-18T14:54:27;41.00;40.20
43679;DHT22;29279;50.858;4.392;2022-07-18T14:56:53;41.00;39.10
43679;DHT22;29279;50.858;4.392;2022-07-18T14:59:19;40.50;39.10
43679;DHT22;29279;50.858;4.392;2022-07-18T15:01:45;40.00;39.60
43679;DHT22;29279;50.858;4.392;2022-07-18T15:04:11;39.60;40.20
43679;DHT22;29279;50.858;4.392;2022-07-18T15:06:36;39.50;40.50
43679;DHT22;29279;50.858;4.392;2022-07-18T15:09:03;39.60;40.40
43679;DHT22;29279;50.858;4.392;2022-07-18T15:11:29;39.60;40.60
43679;DHT22;29279;50.858;4.392;2022-07-18T15:13:55;39.60;40.30
43679;DHT22;29279;50.858;4.392;2022-07-18T15:16:21;39.60;39.80
43679;DHT22;29279;50.858;4.392;2022-07-18T15:18:47;39.30;40.00
43679;DHT22;29279;50.858;4.392;2022-07-18T15:21:13;39.00;40.70
43679;DHT22;29279;50.858;4.392;2022-07-18T15:23:39;38.90;40.20
43679;DHT22;29279;50.858;4.392;2022-07-18T15:26:05;38.90;40.50
43679;DHT22;29279;50.858;4.392;2022-07-18T15:28:31;38.90;40.50
43679;DHT22;29279;50.858;4.392;2022-07-18T15:30:56;39.00;40.30
43679;DHT22;29279;50.858;4.392;2022-07-18T15:33:22;38.90;40.80
43679;DHT22;29279;50.858;4.392;2022-07-18T15:35:48;39.00;41.00
43679;DHT22;29279;50.858;4.392;2022-07-18T15:38:13;39.10;40.90
43679;DHT22;29279;50.858;4.392;2022-07-18T15:40:39;39.20;40.90
43679;DHT22;29279;50.858;4.392;2022-07-18T15:43:05;39.20;39.90
43679;DHT22;29279;50.858;4.392;2022-07-18T15:45:31;38.70;39.90
43679;DHT22;29279;50.858;4.392;2022-07-18T15:47:57;38.50;40.40
43679;DHT22;29279;50.858;4.392;2022-07-18T15:50:23;38.50;40.50
43679;DHT22;29279;50.858;4.392;2022-07-18T15:52:49;38.50;40.50
43679;DHT22;29279;50.858;4.392;2022-07-18T15:55:15;38.50;40.90
43679;DHT22;29279;50.858;4.392;2022-07-18T15:57:41;38.70;40.70
43679;DHT22;29279;50.858;4.392;2022-07-18T16:00:07;38.60;40.50
43679;DHT22;29279;50.858;4.392;2022-07-18T16:02:33;38.60;40.40
43679;DHT22;29279;50.858;4.392;2022-07-18T16:04:58;38.50;40.60
43679;DHT22;29279;50.858;4.392;2022-07-18T16:07:24;38.30;40.70
43679;DHT22;29279;50.858;4.392;2022-07-18T16:09:50;38.10;40.80
43679;DHT22;29279;50.858;4.392;2022-07-18T16:12:16;38.00;40.80
43679;DHT22;29279;50.858;4.392;2022-07-18T16:14:41;38.00;42.00
43679;DHT22;29279;50.858;4.392;2022-07-18T16:17:07;38.20;41.60
43679;DHT22;29279;50.858;4.392;2022-07-18T16:19:33;38.40;41.80